sensor_id;sensor_type;location;lat;lon;timestamp;pressure;altitude;pressure_sealevel;temperature;humidity
44839;BME280;30576;42.098;24.876;2022-11-06T00:00:25;99463.00;;;11.24;72.16
44839;BME280;30576;42.098;24.876;2022-11-06T00:02:50;99468.34;;;11.21;71.91
44839;BME280;30576;42.098;24.876;2022-11-06T00:05:15;99461.69;;;11.01;71.98
44839;BME280;30576;42.098;24.876;2022-11-06T00:07:59;99458.69;;;11.18;71.13
44839;BME280;30576;42.098;24.876;2022-11-06T00:10:24;99465.25;;;11.00;71.42
44839;BME280;30576;42.098;24.876;2022-11-06T00:12:50;99452.41;;;10.82;71.98
44839;BME280;30576;42.098;24.876;2022-11-06T00:15:15;99457.34;;;10.99;71.65
44839;BME280;30576;42.098;24.876;2022-11-06T00:17:41;99459.13;;;10.97;71.70
44839;BME280;30576;42.098;24.876;2022-11-06T00:20:06;99453.66;;;11.06;71.51
44839;BME280;30576;42.098;24.876;2022-11-06T00:22:32;99444.16;;;10.99;70.96
44839;BME280;30576;42.098;24.876;2022-11-06T00:24:58;99444.38;;;10.88;71.76
44839;BME280;30576;42.098;24.876;2022-11-06T00:27:23;99437.16;;;10.96;71.38
44839;BME280;30576;42.098;24.876;2022-11-06T00:29:48;99437.88;;;11.04;71.59
44839;BME280;30576;42.098;24.876;2022-11-06T00:32:13;99433.41;;;11.08;71.42
44839;BME280;30576;42.098;24.876;2022-11-06T00:34:39;99433.38;;;11.09;70.83
44839;BME280;30576;42.098;24.876;2022-11-06T00:37:04;99430.72;;;11.11;70.69
44839;BME280;30576;42.098;24.876;2022-11-06T00:39:29;99431.13;;;10.91;70.17
44839;BME280;30576;42.098;24.876;2022-11-06T00:41:55;99439.34;;;10.75;70.76
44839;BME280;30576;42.098;24.876;2022-11-06T00:44:20;99431.47;;;10.74;70.55
44839;BME280;30576;42.098;24.876;2022-11-06T00:46:45;99434.03;;;10.77;70.59
44839;BME280;30576;42.098;24.876;2022-11-06T00:49:11;99432.38;;;10.71;70.94
44839;BME280;30576;42.098;24.876;2022-11-06T00:51:36;99428.13;;;10.64;71.24
44839;BME280;30576;42.098;24.876;2022-11-06T00:54:06;99429.97;;;10.61;70.54
44839;BME280;30576;42.098;24.876;2022-11-06T00:56:32;99441.53;;;10.53;70.89
44839;BME280;30576;42.098;24.876;2022-11-06T00:58:58;99461.03;;;10.45;70.96
44839;BME280;30576;42.098;24.876;2022-11-06T01:01:24;99447.03;;;10.43;70.73
44839;BME280;30576;42.098;24.876;2022-11-06T01:03:51;99450.44;;;10.48;70.61
44839;BME280;30576;42.098;24.876;2022-11-06T01:06:18;99450.44;;;10.48;70.37
44839;BME280;30576;42.098;24.876;2022-11-06T01:08:43;99455.09;;;10.33;70.75
44839;BME280;30576;42.098;24.876;2022-11-06T01:11:14;99450.69;;;10.32;70.83
44839;BME280;30576;42.098;24.876;2022-11-06T01:13:41;99453.31;;;10.32;70.38
44839;BME280;30576;42.098;24.876;2022-11-06T01:16:07;99455.34;;;10.16;70.38
44839;BME280;30576;42.098;24.876;2022-11-06T01:18:33;99451.78;;;10.19;70.24
44839;BME280;30576;42.098;24.876;2022-11-06T01:21:01;99451.69;;;10.24;70.88
44839;BME280;30576;42.098;24.876;2022-11-06T01:23:27;99447.38;;;10.21;71.14
44839;BME280;30576;42.098;24.876;2022-11-06T01:25:56;99445.41;;;10.32;71.17
44839;BME280;30576;42.098;24.876;2022-11-06T01:28:22;99447.47;;;10.15;71.66
44839;BME280;30576;42.098;24.876;2022-11-06T01:30:47;99448.13;;;10.28;71.56
44839;BME280;30576;42.098;24.876;2022-11-06T01:33:12;99451.53;;;10.34;71.29
44839;BME280;30576;42.098;24.876;2022-11-06T01:35:43;99443.78;;;10.24;71.60
44839;BME280;30576;42.098;24.876;2022-11-06T01:38:08;99442.00;;;10.26;71.40
44839;BME280;30576;42.098;24.876;2022-11-06T01:40:38;99437.34;;;9.90;71.58
44839;BME280;30576;42.098;24.876;2022-11-06T01:43:04;99437.13;;;10.02;71.49
44839;BME280;30576;42.098;24.876;2022-11-06T01:45:34;99431.03;;;9.99;71.80
44839;BME280;30576;42.098;24.876;2022-11-06T01:48:01;99435.41;;;10.00;72.08
44839;BME280;30576;42.098;24.876;2022-11-06T01:50:27;99435.88;;;9.71;73.32
44839;BME280;30576;42.098;24.876;2022-11-06T01:52:52;99433.03;;;9.84;72.74
44839;BME280;30576;42.098;24.876;2022-11-06T01:55:25;99448.19;;;9.72;73.40
44839;BME280;30576;42.098;24.876;2022-11-06T01:57:51;99453.19;;;9.89;72.95
44839;BME280;30576;42.098;24.876;2022-11-06T02:00:16;99454.94;;;9.86;73.36
44839;BME280;30576;42.098;24.876;2022-11-06T02:02:43;99446.84;;;9.99;72.92
44839;BME280;30576;42.098;24.876;2022-11-06T02:05:09;99453.06;;;9.95;72.97
44839;BME280;30576;42.098;24.876;2022-11-06T02:07:34;99454.06;;;9.88;73.10
44839;BME280;30576;42.098;24.876;2022-11-06T02:10:00;99451.47;;;9.84;73.51
44839;BME280;30576;42.098;24.876;2022-11-06T02:20:34;99441.97;;;9.74;74.48
44839;BME280;30576;42.098;24.876;2022-11-06T02:28:14;99459.50;;;9.77;72.91
44839;BME280;30576;42.098;24.876;2022-11-06T02:30:43;99451.44;;;9.28;72.91
44839;BME280;30576;42.098;24.876;2022-11-06T02:33:11;99446.16;;;9.30;73.34
44839;BME280;30576;42.098;24.876;2022-11-06T02:35:45;99453.16;;;9.29;73.90
44839;BME280;30576;42.098;24.876;2022-11-06T02:38:15;99446.75;;;9.47;73.02
44839;BME280;30576;42.098;24.876;2022-11-06T02:40:42;99455.84;;;9.25;75.11
44839;BME280;30576;42.098;24.876;2022-11-06T02:43:09;99454.47;;;9.60;74.09
44839;BME280;30576;42.098;24.876;2022-11-06T02:45:45;99461.47;;;9.64;72.73
44839;BME280;30576;42.098;24.876;2022-11-06T02:48:12;99458.16;;;9.48;72.17
44839;BME280;30576;42.098;24.876;2022-11-06T02:50:39;99454.97;;;9.24;72.32
44839;BME280;30576;42.098;24.876;2022-11-06T02:53:07;99467.16;;;9.33;72.96
44839;BME280;30576;42.098;24.876;2022-11-06T02:55:37;99451.38;;;9.33;72.36
44839;BME280;30576;42.098;24.876;2022-11-06T02:58:08;99465.31;;;9.40;72.25
44839;BME280;30576;42.098;24.876;2022-11-06T03:00:35;99466.13;;;9.42;70.90
44839;BME280;30576;42.098;24.876;2022-11-06T03:03:05;99451.13;;;8.82;72.30
44839;BME280;30576;42.098;24.876;2022-11-06T03:11:14;99466.06;;;8.80;75.92
44839;BME280;30576;42.098;24.876;2022-11-06T03:13:35;99454.56;;;8.90;75.15
44839;BME280;30576;42.098;24.876;2022-11-06T03:16:04;99462.59;;;8.77;76.05
44839;BME280;30576;42.098;24.876;2022-11-06T03:18:40;99459.44;;;9.21;74.75
44839;BME280;30576;42.098;24.876;2022-11-06T03:21:23;99457.63;;;9.23;74.17
44839;BME280;30576;42.098;24.876;2022-11-06T03:23:51;99460.31;;;9.18;74.85
44839;BME280;30576;42.098;24.876;2022-11-06T03:26:27;99463.78;;;9.20;74.58
44839;BME280;30576;42.098;24.876;2022-11-06T03:28:56;99463.78;;;9.20;74.40
44839;BME280;30576;42.098;24.876;2022-11-06T03:31:29;99463.38;;;8.83;75.00
44839;BME280;30576;42.098;24.876;2022-11-06T03:33:57;99455.63;;;8.70;76.14
44839;BME280;30576;42.098;24.876;2022-11-06T03:36:25;99458.97;;;8.85;75.60
44839;BME280;30576;42.098;24.876;2022-11-06T03:39:07;99451.91;;;8.91;75.69
44839;BME280;30576;42.098;24.876;2022-11-06T03:44:07;99454.34;;;9.07;75.79
44839;BME280;30576;42.098;24.876;2022-11-06T03:46:35;99462.06;;;9.21;75.22
44839;BME280;30576;42.098;24.876;2022-11-06T03:49:02;99440.03;;;9.26;75.78
44839;BME280;30576;42.098;24.876;2022-11-06T03:51:52;99462.53;;;9.49;75.17
44839;BME280;30576;42.098;24.876;2022-11-06T03:54:18;99457.56;;;9.29;75.68
44839;BME280;30576;42.098;24.876;2022-11-06T03:56:57;99454.03;;;9.30;75.19
44839;BME280;30576;42.098;24.876;2022-11-06T03:59:26;99451.25;;;9.42;75.10
44839;BME280;30576;42.098;24.876;2022-11-06T04:01:53;99458.34;;;9.34;75.42
44839;BME280;30576;42.098;24.876;2022-11-06T04:04:22;99455.59;;;9.42;74.72
44839;BME280;30576;42.098;24.876;2022-11-06T04:06:56;99460.16;;;9.32;75.25
44839;BME280;30576;42.098;24.876;2022-11-06T04:09:25;99457.44;;;9.38;75.25
44839;BME280;30576;42.098;24.876;2022-11-06T04:12:10;99454.00;;;9.33;75.36
44839;BME280;30576;42.098;24.876;2022-11-06T04:14:56;99456.66;;;9.31;75.74
44839;BME280;30576;42.098;24.876;2022-11-06T04:17:22;99458.25;;;9.42;75.68
44839;BME280;30576;42.098;24.876;2022-11-06T04:19:51;99458.19;;;9.45;75.68
44839;BME280;30576;42.098;24.876;2022-11-06T04:30:12;99462.28;;;9.67;75.41
44839;BME280;30576;42.098;24.876;2022-11-06T04:37:42;99465.22;;;9.46;75.87
44839;BME280;30576;42.098;24.876;2022-11-06T04:45:22;99453.50;;;9.68;76.56
44839;BME280;30576;42.098;24.876;2022-11-06T04:47:45;99455.13;;;9.74;75.45
44839;BME280;30576;42.098;24.876;2022-11-06T04:50:11;99455.22;;;9.68;74.91
44839;BME280;30576;42.098;24.876;2022-11-06T04:52:39;99452.50;;;9.74;74.83
44839;BME280;30576;42.098;24.876;2022-11-06T04:55:05;99461.28;;;9.75;75.29
44839;BME280;30576;42.098;24.876;2022-11-06T04:57:30;99473.56;;;9.76;74.36
44839;BME280;30576;42.098;24.876;2022-11-06T04:59:55;99463.94;;;9.73;75.09
44839;BME280;30576;42.098;24.876;2022-11-06T05:02:21;99476.25;;;9.71;75.38
44839;BME280;30576;42.098;24.876;2022-11-06T05:04:46;99478.00;;;9.72;75.36
44839;BME280;30576;42.098;24.876;2022-11-06T05:07:12;99468.63;;;9.53;75.17
44839;BME280;30576;42.098;24.876;2022-11-06T05:09:37;99473.22;;;9.38;76.23
44839;BME280;30576;42.098;24.876;2022-11-06T05:12:02;99462.44;;;9.55;74.73
44839;BME280;30576;42.098;24.876;2022-11-06T05:14:28;99478.44;;;9.43;75.15
44839;BME280;30576;42.098;24.876;2022-11-06T05:16:53;99480.47;;;9.21;75.17
44839;BME280;30576;42.098;24.876;2022-11-06T05:19:18;99493.38;;;9.41;75.43
44839;BME280;30576;42.098;24.876;2022-11-06T05:21:44;99500.75;;;9.11;77.13
44839;BME280;30576;42.098;24.876;2022-11-06T05:24:28;99500.69;;;9.16;77.36
44839;BME280;30576;42.098;24.876;2022-11-06T05:26:53;99496.56;;;8.98;78.53
44839;BME280;30576;42.098;24.876;2022-11-06T05:29:18;99497.13;;;9.21;77.54
44839;BME280;30576;42.098;24.876;2022-11-06T05:31:44;99501.34;;;9.35;77.42
44839;BME280;30576;42.098;24.876;2022-11-06T05:34:09;99511.78;;;9.42;77.90
44839;BME280;30576;42.098;24.876;2022-11-06T05:36:34;99507.13;;;9.61;77.65
44839;BME280;30576;42.098;24.876;2022-11-06T05:39:00;99506.97;;;9.72;77.45
44839;BME280;30576;42.098;24.876;2022-11-06T05:41:25;99515.50;;;9.90;77.20
44839;BME280;30576;42.098;24.876;2022-11-06T05:43:50;99509.16;;;10.03;76.86
44839;BME280;30576;42.098;24.876;2022-11-06T05:46:16;99515.81;;;10.27;75.44
44839;BME280;30576;42.098;24.876;2022-11-06T05:48:41;99526.56;;;10.13;76.12
44839;BME280;30576;42.098;24.876;2022-11-06T05:51:07;99523.88;;;10.18;76.50
44839;BME280;30576;42.098;24.876;2022-11-06T05:53:33;99528.22;;;10.19;76.43
44839;BME280;30576;42.098;24.876;2022-11-06T05:55:59;99531.50;;;10.36;75.33
44839;BME280;30576;42.098;24.876;2022-11-06T05:58:25;99533.25;;;10.36;76.01
44839;BME280;30576;42.098;24.876;2022-11-06T06:00:50;99534.91;;;10.43;75.59
44839;BME280;30576;42.098;24.876;2022-11-06T06:03:16;99536.59;;;10.47;75.34
44839;BME280;30576;42.098;24.876;2022-11-06T06:05:41;99544.16;;;10.66;75.22
44839;BME280;30576;42.098;24.876;2022-11-06T06:08:06;99552.00;;;10.69;74.71
44839;BME280;30576;42.098;24.876;2022-11-06T06:10:32;99558.25;;;10.65;74.78
44839;BME280;30576;42.098;24.876;2022-11-06T06:12:57;99558.22;;;10.68;74.75
44839;BME280;30576;42.098;24.876;2022-11-06T06:15:22;99562.69;;;10.61;75.41
44839;BME280;30576;42.098;24.876;2022-11-06T06:17:48;99569.56;;;10.71;75.05
44839;BME280;30576;42.098;24.876;2022-11-06T06:20:13;99565.13;;;10.73;75.78
44839;BME280;30576;42.098;24.876;2022-11-06T06:22:38;99571.22;;;10.79;75.95
44839;BME280;30576;42.098;24.876;2022-11-06T06:25:04;99572.00;;;10.84;75.68
44839;BME280;30576;42.098;24.876;2022-11-06T06:27:29;99579.69;;;10.96;75.57
44839;BME280;30576;42.098;24.876;2022-11-06T06:29:55;99584.59;;;11.16;74.99
44839;BME280;30576;42.098;24.876;2022-11-06T06:32:21;99577.59;;;11.14;75.37
44839;BME280;30576;42.098;24.876;2022-11-06T06:34:46;99588.09;;;11.17;76.19
44839;BME280;30576;42.098;24.876;2022-11-06T06:37:11;99584.91;;;11.44;75.14
44839;BME280;30576;42.098;24.876;2022-11-06T06:39:37;99582.09;;;11.52;74.92
44839;BME280;30576;42.098;24.876;2022-11-06T06:42:02;99586.25;;;11.65;74.53
44839;BME280;30576;42.098;24.876;2022-11-06T06:44:27;99578.97;;;11.75;74.35
44839;BME280;30576;42.098;24.876;2022-11-06T06:46:53;99587.22;;;11.60;75.02
44839;BME280;30576;42.098;24.876;2022-11-06T06:49:18;99587.63;;;11.83;74.89
44839;BME280;30576;42.098;24.876;2022-11-06T06:51:46;99599.84;;;11.88;75.44
44839;BME280;30576;42.098;24.876;2022-11-06T06:54:11;99603.16;;;12.00;75.22
44839;BME280;30576;42.098;24.876;2022-11-06T06:56:36;99605.59;;;12.10;74.76
44839;BME280;30576;42.098;24.876;2022-11-06T06:59:01;99599.16;;;12.20;74.83
44839;BME280;30576;42.098;24.876;2022-11-06T07:01:27;99603.09;;;12.41;74.56
44839;BME280;30576;42.098;24.876;2022-11-06T07:03:52;99602.28;;;12.39;75.06
44839;BME280;30576;42.098;24.876;2022-11-06T07:06:18;99602.84;;;12.52;75.03
44839;BME280;30576;42.098;24.876;2022-11-06T07:08:45;99610.00;;;12.48;77.11
44839;BME280;30576;42.098;24.876;2022-11-06T07:11:12;99604.94;;;12.74;75.48
44839;BME280;30576;42.098;24.876;2022-11-06T07:13:38;99596.88;;;12.78;75.86
44839;BME280;30576;42.098;24.876;2022-11-06T07:16:04;99605.81;;;13.08;74.44
44839;BME280;30576;42.098;24.876;2022-11-06T07:20:59;99607.97;;;13.27;75.61
44839;BME280;30576;42.098;24.876;2022-11-06T07:23:24;99605.63;;;13.16;75.44
44839;BME280;30576;42.098;24.876;2022-11-06T07:25:52;99610.34;;;13.38;74.69
44839;BME280;30576;42.098;24.876;2022-11-06T07:28:18;99602.97;;;13.79;73.15
44839;BME280;30576;42.098;24.876;2022-11-06T07:30:43;99607.16;;;13.88;72.92
44839;BME280;30576;42.098;24.876;2022-11-06T07:33:08;99616.25;;;14.09;72.94
44839;BME280;30576;42.098;24.876;2022-11-06T07:35:34;99611.22;;;14.28;72.23
44839;BME280;30576;42.098;24.876;2022-11-06T07:38:01;99612.38;;;14.47;71.89
44839;BME280;30576;42.098;24.876;2022-11-06T07:40:27;99612.88;;;14.32;72.42
44839;BME280;30576;42.098;24.876;2022-11-06T07:42:52;99602.16;;;14.35;71.61
44839;BME280;30576;42.098;24.876;2022-11-06T07:45:17;99605.78;;;14.32;72.78
44839;BME280;30576;42.098;24.876;2022-11-06T07:47:43;99608.34;;;14.36;72.32
44839;BME280;30576;42.098;24.876;2022-11-06T07:50:08;99612.88;;;14.32;72.83
44839;BME280;30576;42.098;24.876;2022-11-06T07:52:33;99612.00;;;14.31;72.43
44839;BME280;30576;42.098;24.876;2022-11-06T07:54:59;99604.19;;;14.27;71.67
44839;BME280;30576;42.098;24.876;2022-11-06T07:57:24;99616.25;;;14.65;71.08
44839;BME280;30576;42.098;24.876;2022-11-06T07:59:49;99612.88;;;14.87;70.80
44839;BME280;30576;42.098;24.876;2022-11-06T08:02:15;99627.00;;;15.14;69.70
44839;BME280;30576;42.098;24.876;2022-11-06T08:04:41;99614.31;;;15.22;68.86
44839;BME280;30576;42.098;24.876;2022-11-06T08:07:06;99619.09;;;15.13;69.90
44839;BME280;30576;42.098;24.876;2022-11-06T08:09:32;99619.34;;;15.55;68.41
44839;BME280;30576;42.098;24.876;2022-11-06T08:11:57;99626.81;;;15.44;68.68
44839;BME280;30576;42.098;24.876;2022-11-06T08:14:22;99619.34;;;15.55;68.75
44839;BME280;30576;42.098;24.876;2022-11-06T08:16:48;99628.91;;;15.36;69.52
44839;BME280;30576;42.098;24.876;2022-11-06T08:19:13;99634.75;;;15.46;69.51
44839;BME280;30576;42.098;24.876;2022-11-06T08:21:38;99639.09;;;15.48;70.43
44839;BME280;30576;42.098;24.876;2022-11-06T08:24:04;99637.91;;;15.57;69.67
44839;BME280;30576;42.098;24.876;2022-11-06T08:26:29;99639.38;;;15.40;69.98
44839;BME280;30576;42.098;24.876;2022-11-06T08:28:55;99639.84;;;15.27;70.03
44839;BME280;30576;42.098;24.876;2022-11-06T08:31:21;99643.59;;;15.46;70.56
44839;BME280;30576;42.098;24.876;2022-11-06T08:33:47;99653.91;;;15.55;71.23
44839;BME280;30576;42.098;24.876;2022-11-06T08:36:12;99663.88;;;15.49;70.84
44839;BME280;30576;42.098;24.876;2022-11-06T08:38:38;99665.28;;;15.59;71.33
44839;BME280;30576;42.098;24.876;2022-11-06T08:41:07;99673.06;;;15.40;70.75
44839;BME280;30576;42.098;24.876;2022-11-06T08:43:33;99684.25;;;15.73;70.04
44839;BME280;30576;42.098;24.876;2022-11-06T08:45:59;99671.28;;;15.64;69.74
44839;BME280;30576;42.098;24.876;2022-11-06T08:48:24;99696.50;;;15.79;69.22
44839;BME280;30576;42.098;24.876;2022-11-06T08:50:49;99687.13;;;15.67;69.28
44839;BME280;30576;42.098;24.876;2022-11-06T08:53:15;99696.66;;;15.74;69.79
44839;BME280;30576;42.098;24.876;2022-11-06T08:55:40;99684.53;;;15.66;70.39
44839;BME280;30576;42.098;24.876;2022-11-06T08:58:05;99686.72;;;15.80;70.25
44839;BME280;30576;42.098;24.876;2022-11-06T09:00:31;99678.94;;;15.73;69.80
44839;BME280;30576;42.098;24.876;2022-11-06T09:03:00;99671.41;;;15.86;68.19
44839;BME280;30576;42.098;24.876;2022-11-06T09:05:26;99663.72;;;16.02;67.65
44839;BME280;30576;42.098;24.876;2022-11-06T09:07:51;99687.50;;;16.07;67.67
44839;BME280;30576;42.098;24.876;2022-11-06T09:10:17;99674.53;;;16.21;67.56
44839;BME280;30576;42.098;24.876;2022-11-06T09:12:43;99690.31;;;16.26;67.46
44839;BME280;30576;42.098;24.876;2022-11-06T09:15:09;99688.88;;;16.41;66.47
44839;BME280;30576;42.098;24.876;2022-11-06T09:17:40;99692.28;;;16.44;66.56
44839;BME280;30576;42.098;24.876;2022-11-06T09:20:06;99694.94;;;16.44;66.34
44839;BME280;30576;42.098;24.876;2022-11-06T09:22:31;99687.16;;;16.16;67.43
44839;BME280;30576;42.098;24.876;2022-11-06T09:24:56;99690.22;;;16.05;68.07
44839;BME280;30576;42.098;24.876;2022-11-06T09:27:22;99681.94;;;16.13;67.62
44839;BME280;30576;42.098;24.876;2022-11-06T09:29:47;99634.28;;;15.83;69.32
44839;BME280;30576;42.098;24.876;2022-11-06T09:32:13;99612.56;;;15.47;70.79
44839;BME280;30576;42.098;24.876;2022-11-06T09:34:38;99616.09;;;15.22;72.24
44839;BME280;30576;42.098;24.876;2022-11-06T09:37:03;99665.88;;;15.67;71.53
44839;BME280;30576;42.098;24.876;2022-11-06T09:39:29;99669.75;;;15.84;71.53
44839;BME280;30576;42.098;24.876;2022-11-06T09:41:58;99668.84;;;15.83;71.57
44839;BME280;30576;42.098;24.876;2022-11-06T09:47:12;99660.31;;;16.22;70.26
44839;BME280;30576;42.098;24.876;2022-11-06T09:49:43;99658.75;;;16.39;70.34
44839;BME280;30576;42.098;24.876;2022-11-06T09:54:44;99652.19;;;16.70;68.38
44839;BME280;30576;42.098;24.876;2022-11-06T09:57:21;99650.72;;;16.85;69.19
44839;BME280;30576;42.098;24.876;2022-11-06T09:59:49;99652.16;;;16.93;69.80
44839;BME280;30576;42.098;24.876;2022-11-06T10:02:32;99655.88;;;16.89;70.14
44839;BME280;30576;42.098;24.876;2022-11-06T10:07:43;99659.69;;;16.82;70.81
44839;BME280;30576;42.098;24.876;2022-11-06T10:10:16;99657.16;;;16.57;72.40
44839;BME280;30576;42.098;24.876;2022-11-06T10:12:52;99668.88;;;16.75;73.12
44839;BME280;30576;42.098;24.876;2022-11-06T10:20:38;99658.56;;;16.21;72.07
44839;BME280;30576;42.098;24.876;2022-11-06T10:23:17;99662.16;;;15.97;73.49
44839;BME280;30576;42.098;24.876;2022-11-06T10:30:45;99651.38;;;15.76;74.55
44839;BME280;30576;42.098;24.876;2022-11-06T10:41:20;99658.56;;;15.74;74.12
44839;BME280;30576;42.098;24.876;2022-11-06T10:43:48;99653.16;;;15.77;73.88
44839;BME280;30576;42.098;24.876;2022-11-06T10:48:52;99651.28;;;15.79;73.40
44839;BME280;30576;42.098;24.876;2022-11-06T10:59:13;99640.13;;;15.93;74.31
44839;BME280;30576;42.098;24.876;2022-11-06T11:01:40;99642.25;;;15.83;73.64
44839;BME280;30576;42.098;24.876;2022-11-06T11:04:05;99638.09;;;15.76;74.27
44839;BME280;30576;42.098;24.876;2022-11-06T11:06:30;99626.19;;;15.86;74.74
44839;BME280;30576;42.098;24.876;2022-11-06T11:08:56;99629.28;;;16.21;73.53
44839;BME280;30576;42.098;24.876;2022-11-06T11:11:23;99635.03;;;16.10;74.28
44839;BME280;30576;42.098;24.876;2022-11-06T11:16:21;99629.34;;;16.42;72.18
44839;BME280;30576;42.098;24.876;2022-11-06T11:18:47;99624.75;;;16.23;71.65
44839;BME280;30576;42.098;24.876;2022-11-06T11:21:25;99628.75;;;16.35;72.29
44839;BME280;30576;42.098;24.876;2022-11-06T11:26:55;99618.22;;;16.54;70.85
44839;BME280;30576;42.098;24.876;2022-11-06T11:29:25;99614.53;;;16.36;70.48
44839;BME280;30576;42.098;24.876;2022-11-06T11:31:52;99621.44;;;16.62;70.01
44839;BME280;30576;42.098;24.876;2022-11-06T11:34:23;99611.44;;;16.90;69.40
44839;BME280;30576;42.098;24.876;2022-11-06T11:36:54;99609.91;;;16.62;70.32
44839;BME280;30576;42.098;24.876;2022-11-06T11:39:21;99610.47;;;16.92;68.61
44839;BME280;30576;42.098;24.876;2022-11-06T11:41:47;99610.47;;;17.33;67.73
44839;BME280;30576;42.098;24.876;2022-11-06T11:44:13;99614.53;;;17.22;66.98
44839;BME280;30576;42.098;24.876;2022-11-06T11:49:24;99611.88;;;17.01;67.49
44839;BME280;30576;42.098;24.876;2022-11-06T11:51:49;99614.22;;;17.09;67.08
44839;BME280;30576;42.098;24.876;2022-11-06T11:54:19;99615.06;;;16.89;68.09
44839;BME280;30576;42.098;24.876;2022-11-06T11:56:47;99615.13;;;17.08;68.23
44839;BME280;30576;42.098;24.876;2022-11-06T11:59:20;99616.81;;;17.10;67.54
44839;BME280;30576;42.098;24.876;2022-11-06T12:01:46;99629.41;;;17.27;67.00
44839;BME280;30576;42.098;24.876;2022-11-06T12:06:54;99631.41;;;17.43;66.60
44839;BME280;30576;42.098;24.876;2022-11-06T12:09:20;99628.38;;;17.30;66.10
44839;BME280;30576;42.098;24.876;2022-11-06T12:11:46;99634.47;;;17.33;66.66
44839;BME280;30576;42.098;24.876;2022-11-06T12:14:15;99632.16;;;17.26;67.25
44839;BME280;30576;42.098;24.876;2022-11-06T12:16:41;99626.06;;;17.22;66.72
44839;BME280;30576;42.098;24.876;2022-11-06T12:19:07;99624.09;;;17.27;67.11
44839;BME280;30576;42.098;24.876;2022-11-06T12:21:33;99618.06;;;17.22;67.49
44839;BME280;30576;42.098;24.876;2022-11-06T12:26:30;99620.59;;;17.05;68.34
44839;BME280;30576;42.098;24.876;2022-11-06T12:29:00;99621.19;;;17.11;68.12
44839;BME280;30576;42.098;24.876;2022-11-06T12:34:00;99616.88;;;17.09;67.33
44839;BME280;30576;42.098;24.876;2022-11-06T12:36:28;99613.31;;;17.08;67.53
44839;BME280;30576;42.098;24.876;2022-11-06T12:39:00;99615.84;;;16.91;68.45
44839;BME280;30576;42.098;24.876;2022-11-06T12:41:31;99608.16;;;16.83;69.07
44839;BME280;30576;42.098;24.876;2022-11-06T12:43:58;99617.31;;;16.76;69.11
44839;BME280;30576;42.098;24.876;2022-11-06T12:46:44;99604.50;;;16.86;69.29
44839;BME280;30576;42.098;24.876;2022-11-06T12:57:33;99615.22;;;17.06;67.31
44839;BME280;30576;42.098;24.876;2022-11-06T13:15:24;99607.00;;;16.90;68.83
44839;BME280;30576;42.098;24.876;2022-11-06T13:17:53;99603.25;;;16.94;68.60
44839;BME280;30576;42.098;24.876;2022-11-06T13:20:27;99600.66;;;16.93;68.47
44839;BME280;30576;42.098;24.876;2022-11-06T13:23:04;99599.34;;;17.03;68.64
44839;BME280;30576;42.098;24.876;2022-11-06T13:25:42;99596.41;;;17.30;66.40
44839;BME280;30576;42.098;24.876;2022-11-06T13:30:39;99603.81;;;17.03;67.85
44839;BME280;30576;42.098;24.876;2022-11-06T13:35:35;99605.72;;;16.99;68.41
44839;BME280;30576;42.098;24.876;2022-11-06T13:38:02;99613.88;;;17.37;67.81
44839;BME280;30576;42.098;24.876;2022-11-06T13:40:40;99609.88;;;17.27;67.43
44839;BME280;30576;42.098;24.876;2022-11-06T13:45:38;99600.41;;;16.99;67.64
44839;BME280;30576;42.098;24.876;2022-11-06T13:50:52;99602.47;;;17.13;67.50
44839;BME280;30576;42.098;24.876;2022-11-06T13:53:22;99600.09;;;16.64;68.98
44839;BME280;30576;42.098;24.876;2022-11-06T14:06:43;99593.34;;;16.76;68.34
44839;BME280;30576;42.098;24.876;2022-11-06T14:09:14;99599.81;;;16.70;69.11
44839;BME280;30576;42.098;24.876;2022-11-06T14:11:41;99601.44;;;16.52;69.26
44839;BME280;30576;42.098;24.876;2022-11-06T14:14:22;99597.59;;;16.59;69.21
44839;BME280;30576;42.098;24.876;2022-11-06T14:19:32;99590.09;;;16.03;71.38
44839;BME280;30576;42.098;24.876;2022-11-06T14:26:58;99586.94;;;16.15;71.41
44839;BME280;30576;42.098;24.876;2022-11-06T14:31:59;99589.56;;;16.17;71.61
44839;BME280;30576;42.098;24.876;2022-11-06T14:34:26;99591.59;;;16.32;70.98
44839;BME280;30576;42.098;24.876;2022-11-06T14:36:52;99586.91;;;16.17;71.56
44839;BME280;30576;42.098;24.876;2022-11-06T14:39:17;99598.34;;;16.19;71.20
44839;BME280;30576;42.098;24.876;2022-11-06T14:42:03;99591.41;;;16.37;70.29
44839;BME280;30576;42.098;24.876;2022-11-06T14:44:38;99590.31;;;16.42;70.20
44839;BME280;30576;42.098;24.876;2022-11-06T14:47:06;99583.56;;;16.34;70.31
44839;BME280;30576;42.098;24.876;2022-11-06T14:49:37;99583.13;;;16.44;69.90
44839;BME280;30576;42.098;24.876;2022-11-06T14:52:07;99591.16;;;16.43;69.62
44839;BME280;30576;42.098;24.876;2022-11-06T14:54:35;99592.72;;;16.26;69.98
44839;BME280;30576;42.098;24.876;2022-11-06T14:57:04;99599.94;;;16.45;69.56
44839;BME280;30576;42.098;24.876;2022-11-06T14:59:32;99593.97;;;16.18;70.39
44839;BME280;30576;42.098;24.876;2022-11-06T15:02:16;99596.13;;;16.30;69.71
44839;BME280;30576;42.098;24.876;2022-11-06T15:04:46;99604.84;;;16.11;70.36
44839;BME280;30576;42.098;24.876;2022-11-06T15:07:34;99604.97;;;16.31;69.86
44839;BME280;30576;42.098;24.876;2022-11-06T15:13:07;99610.84;;;16.39;69.28
44839;BME280;30576;42.098;24.876;2022-11-06T15:15:34;99615.59;;;16.53;68.85
44839;BME280;30576;42.098;24.876;2022-11-06T15:18:00;99619.97;;;16.55;68.50
44839;BME280;30576;42.098;24.876;2022-11-06T15:20:29;99618.03;;;16.59;67.98
44839;BME280;30576;42.098;24.876;2022-11-06T15:23:00;99619.03;;;16.56;67.82
44839;BME280;30576;42.098;24.876;2022-11-06T15:25:27;99623.78;;;16.48;68.15
44839;BME280;30576;42.098;24.876;2022-11-06T15:30:21;99634.13;;;16.34;69.13